Time;durP1;ratioP1;P1;durP2;ratioP2;P2;SDS_P1;SDS_P2;PMS_P1;PMS_P2;Temp;Humidity;BMP_temperature;BMP_pressure;BME280_temperature;BME280_humidity;BME280_pressure;Samples;Min_cycle;Max_cycle;Signal;HPM_P1;HPM_P2
2022/08/02 00:01:31;;;;;;;1999.90;999.90;;;;;;;20.89;78.57;95630.94;5068501;28;20036;-67
2022/08/02 00:03:57;;;;;;;1999.90;999.90;;;;;;;19.29;78.37;95396.19;5069974;28;20033;-66
2022/08/02 00:06:22;;;;;;;1999.90;999.90;;;;;;;20.55;78.14;95611.75;5069474;28;20025;-67
2022/08/02 00:08:48;;;;;;;1999.90;999.90;;;;;;;20.83;78.34;95691.81;5070403;28;20099;-67
2022/08/02 00:11:13;;;;;;;1999.90;999.90;;;;;;;19.64;78.00;95485.22;5058075;28;20029;-67
2022/08/02 00:13:38;;;;;;;1999.90;999.90;;;;;;;19.85;77.40;95572.06;5065518;28;20029;-67
2022/08/02 00:16:04;;;;;;;1999.90;999.90;;;;;;;18.79;77.81;95385.09;5061594;28;20044;-66
2022/08/02 00:18:30;;;;;;;1999.90;999.90;;;;;;;20.70;78.48;95672.28;5070249;28;20040;-66
2022/08/02 00:20:55;;;;;;;1999.90;999.90;;;;;;;19.56;78.00;95484.28;5069463;28;20032;-65
2022/08/02 00:23:21;;;;;;;1999.90;999.90;;;;;;;19.64;77.78;95539.19;5070150;28;20036;-66
2022/08/02 00:25:46;;;;;;;1999.90;999.90;;;;;;;20.10;77.71;95564.50;5069631;28;20036;-65
2022/08/02 00:28:11;;;;;;;1999.90;999.90;;;;;;;19.23;77.84;95439.63;5069000;28;20020;-65
2022/08/02 00:30:37;;;;;;;1999.90;999.90;;;;;;;20.40;76.49;95634.19;5067957;28;20020;-66
2022/08/02 00:33:04;;;;;;;1999.90;999.90;;;;;;;20.67;77.00;95664.88;5068886;28;20404;-66
2022/08/02 00:35:30;;;;;;;1999.90;999.90;;;;;;;19.23;77.55;95438.84;5070036;28;20032;-66
2022/08/02 00:37:55;;;;;;;1999.90;999.90;;;;;;;20.82;77.64;95655.13;5069826;28;20029;-68
2022/08/02 00:40:22;;;;;;;1999.90;999.90;;;;;;;19.81;77.58;95484.84;5069004;28;20058;-66
2022/08/02 00:43:09;;;;;;;1999.90;999.90;;;;;;;19.71;77.45;95461.88;5069441;28;20029;-67
2022/08/02 00:45:37;;;;;;;1999.90;999.90;;;;;;;20.74;77.61;95600.91;5053535;28;20499;-66
2022/08/02 00:48:04;;;;;;;1999.90;999.90;;;;;;;20.80;77.49;95606.03;5052087;28;20097;-68
2022/08/02 00:50:31;;;;;;;1999.90;999.90;;;;;;;19.70;77.58;95414.41;5068331;28;20447;-68
2022/08/02 00:52:57;;;;;;;1999.90;999.90;;;;;;;19.68;77.19;95434.81;5069439;28;20025;-67
2022/08/02 00:55:23;;;;;;;1999.90;999.90;;;;;;;20.90;77.59;95602.75;5051636;28;20082;-66
2022/08/02 00:57:48;;;;;;;1999.90;999.90;;;;;;;19.62;77.24;95428.91;5049884;28;20059;-66
2022/08/02 01:00:15;;;;;;;1999.90;999.90;;;;;;;20.95;77.16;95624.88;5049557;28;20481;-65
2022/08/02 01:02:40;;;;;;;1999.90;999.90;;;;;;;20.95;77.04;95641.09;5049234;28;20055;-65
2022/08/02 01:05:06;;;;;;;1999.90;999.90;;;;;;;19.54;77.37;95423.69;5049525;28;20029;-66
2022/08/02 01:07:32;;;;;;;1999.90;999.90;;;;;;;20.92;77.31;95633.69;5068252;28;20705;-66
2022/08/02 01:09:57;;;;;;;1999.90;999.90;;;;;;;19.11;77.10;95366.16;5069552;28;20033;-66
2022/08/02 01:12:23;;;;;;;1999.90;999.90;;;;;;;20.44;77.51;95578.28;5066899;28;20422;-66
2022/08/02 01:14:54;;;;;;;1999.90;999.90;;;;;;;19.49;77.54;95436.31;5069369;28;20029;-66
2022/08/02 01:17:41;;;;;;;1999.90;999.90;;;;;;;20.80;77.52;95662.81;5067405;28;20032;-66
2022/08/02 01:20:34;;;;;;;1999.90;999.90;;;;;;;19.24;77.62;95426.91;5049816;28;20033;-66
2022/08/02 01:23:37;;;;;;;1999.90;999.90;;;;;;;20.76;77.70;95635.69;5048900;28;20068;-66
2022/08/02 01:26:11;;;;;;;1999.90;999.90;;;;;;;20.53;77.67;95610.56;5057030;28;20028;-66
2022/08/02 01:28:38;;;;;;;1999.90;999.90;;;;;;;19.01;77.70;95413.31;5068913;28;20123;-66
2022/08/02 01:31:12;;;;;;;1999.90;999.90;;;;;;;19.08;77.34;95408.06;5068156;28;20078;-67
2022/08/02 01:33:50;;;;;;;1999.90;999.90;;;;;;;18.85;77.71;95359.44;5068120;28;20020;-66
2022/08/02 01:36:19;;;;;;;1999.90;999.90;;;;;;;20.70;78.00;95648.72;5068081;28;20032;-66
2022/08/02 01:38:48;;;;;;;1999.90;999.90;;;;;;;20.68;77.75;95707.78;5068104;28;20028;-67
2022/08/02 01:41:18;;;;;;;1999.90;999.90;;;;;;;19.74;77.57;95541.34;5069131;28;20032;-66
2022/08/02 01:43:45;;;;;;;1999.90;999.90;;;;;;;19.57;77.54;95469.66;5067979;28;20122;-66
2022/08/02 01:46:14;;;;;;;1999.90;999.90;;;;;;;20.60;77.35;95635.78;5067616;28;20071;-66
2022/08/02 01:48:41;;;;;;;1999.90;999.90;;;;;;;18.93;77.20;95382.72;5067834;28;20389;-66
2022/08/02 01:51:11;;;;;;;1999.90;999.90;;;;;;;18.77;77.42;95356.94;5069317;28;20444;-67
2022/08/02 01:53:39;;;;;;;1999.90;999.90;;;;;;;19.72;77.49;95525.50;5071613;28;20112;-66
2022/08/02 01:56:07;;;;;;;1999.90;999.90;;;;;;;18.84;77.26;95386.75;5072807;28;20024;-67
2022/08/02 01:58:36;;;;;;;1999.90;999.90;;;;;;;19.16;77.27;95439.47;5072000;28;20032;-66
2022/08/02 02:01:05;;;;;;;1999.90;999.90;;;;;;;18.91;77.44;95417.34;5071907;28;20024;-66
2022/08/02 02:03:31;;;;;;;1999.90;999.90;;;;;;;20.34;77.69;95628.28;5072291;28;20226;-67
2022/08/02 02:05:58;;;;;;;1999.90;999.90;;;;;;;20.35;77.64;95627.13;5070905;28;20055;-66
2022/08/02 02:08:28;;;;;;;1999.90;999.90;;;;;;;18.69;77.35;95382.94;5072835;28;20020;-67
2022/08/02 02:10:57;;;;;;;1999.90;999.90;;;;;;;20.02;77.97;95572.81;5071601;28;20043;-66
2022/08/02 02:13:26;;;;;;;1999.90;999.90;;;;;;;20.37;77.74;95640.28;5072107;28;20085;-66
2022/08/02 02:15:53;;;;;;;1999.90;999.90;;;;;;;18.81;77.76;95406.31;5052966;28;20031;-66
2022/08/02 02:18:27;;;;;;;1999.90;999.90;;;;;;;20.40;77.74;95640.38;5072503;28;20025;-66
2022/08/02 02:20:53;;;;;;;1999.90;999.90;;;;;;;18.87;77.30;95402.22;5065538;28;20025;-66
2022/08/02 02:23:18;;;;;;;1999.90;999.90;;;;;;;19.01;77.14;95436.81;5051930;28;20104;-66
2022/08/02 02:25:45;;;;;;;1999.90;999.90;;;;;;;19.86;77.44;95540.44;5058488;28;20595;-66
2022/08/02 02:28:12;;;;;;;1999.90;999.90;;;;;;;18.80;77.34;95373.19;5072465;28;20024;-66
2022/08/02 02:30:45;;;;;;;1999.90;999.90;;;;;;;19.15;77.24;95435.22;5070486;28;20032;-66
2022/08/02 02:33:12;;;;;;;1999.90;999.90;;;;;;;20.51;77.59;95616.28;5071821;28;20025;-67
2022/08/02 02:35:38;;;;;;;1999.90;999.90;;;;;;;20.59;77.66;95615.31;5071498;28;20043;-66
2022/08/02 02:38:08;;;;;;;1999.90;999.90;;;;;;;20.42;77.63;95573.25;5071246;28;20032;-66
2022/08/02 02:40:34;;;;;;;1999.90;999.90;;;;;;;19.51;77.18;95460.28;5071937;28;20078;-67
2022/08/02 02:43:00;;;;;;;1999.90;999.90;;;;;;;19.48;77.19;95415.09;5069880;28;20024;-67
2022/08/02 02:45:29;;;;;;;1999.90;999.90;;;;;;;20.82;77.13;95620.75;5069485;28;20040;-67
2022/08/02 02:47:55;;;;;;;1999.90;999.90;;;;;;;19.39;76.67;95425.31;5071904;28;20062;-66
2022/08/02 02:50:23;;;;;;;1999.90;999.90;;;;;;;19.83;76.80;95454.78;5070872;28;20032;-66
2022/08/02 02:52:49;;;;;;;1999.90;999.90;;;;;;;19.26;76.42;95383.44;5071576;28;20033;-66
2022/08/02 02:55:17;;;;;;;1999.90;999.90;;;;;;;20.22;76.53;95531.19;5069607;28;20465;-68
2022/08/02 02:57:43;;;;;;;1999.90;999.90;;;;;;;19.88;76.44;95500.38;5071938;28;20465;-67
2022/08/02 03:00:12;;;;;;;1999.90;999.90;;;;;;;19.92;76.49;95487.75;5069547;28;20036;-67
2022/08/02 03:02:39;;;;;;;1999.90;999.90;;;;;;;20.51;76.46;95581.16;5051184;28;20086;-67
2022/08/02 03:05:09;;;;;;;1999.90;999.90;;;;;;;20.54;76.47;95590.50;5066074;28;20034;-67
2022/08/02 03:07:35;;;;;;;1999.90;999.90;;;;;;;20.28;76.58;95594.59;5071479;28;20374;-67
2022/08/02 03:10:02;;;;;;;1999.90;999.90;;;;;;;20.00;76.64;95548.84;5070626;28;20035;-67
2022/08/02 03:12:28;;;;;;;1999.90;999.90;;;;;;;19.69;76.70;95495.75;5035961;28;20041;-67
2022/08/02 03:14:54;;;;;;;1999.90;999.90;;;;;;;20.39;76.64;95608.31;5053310;28;20100;-66
2022/08/02 03:17:19;;;;;;;1999.90;999.90;;;;;;;19.61;76.61;95492.13;5067818;28;20461;-67
2022/08/02 03:19:45;;;;;;;1999.90;999.90;;;;;;;18.16;76.42;95272.78;5070828;28;20389;-67
2022/08/02 03:22:11;;;;;;;1999.90;999.90;;;;;;;19.98;76.50;95564.63;5070809;28;20468;-67
2022/08/02 03:24:37;;;;;;;1999.90;999.90;;;;;;;20.47;76.56;95635.16;5070494;28;20031;-68
2022/08/02 03:27:02;;;;;;;1999.90;999.90;;;;;;;19.56;76.48;95495.06;5071740;28;20032;-68
2022/08/02 03:29:28;;;;;;;1999.90;999.90;;;;;;;19.74;76.47;95533.25;5064510;28;20028;-67
2022/08/02 03:31:55;;;;;;;1999.90;999.90;;;;;;;20.42;76.66;95634.59;5061671;28;20027;-67
2022/08/02 03:34:22;;;;;;;1999.90;999.90;;;;;;;19.47;76.41;95497.19;5051909;28;20385;-67
2022/08/02 03:36:51;;;;;;;1999.90;999.90;;;;;;;20.36;76.64;95642.19;5053232;28;20028;-67
2022/08/02 03:39:19;;;;;;;1999.90;999.90;;;;;;;19.65;76.69;95536.13;5070562;28;20499;-67
2022/08/02 03:41:46;;;;;;;1999.90;999.90;;;;;;;20.29;76.73;95643.97;5070951;28;20100;-68
2022/08/02 03:44:13;;;;;;;1999.90;999.90;;;;;;;20.05;76.72;95602.56;5051852;28;20149;-67
2022/08/02 03:46:39;;;;;;;1999.90;999.90;;;;;;;19.50;76.64;95526.16;5068833;28;20091;-67
2022/08/02 03:49:06;;;;;;;1999.90;999.90;;;;;;;18.92;76.64;95445.06;5068772;28;20105;-68
2022/08/02 03:51:33;;;;;;;1999.90;999.90;;;;;;;19.51;77.06;95530.41;5052900;28;20076;-68
2022/08/02 03:54:00;;;;;;;1999.90;999.90;;;;;;;18.99;76.64;95488.38;5068792;28;20036;-67
2022/08/02 03:56:27;;;;;;;1999.90;999.90;;;;;;;19.74;76.96;95598.81;5070902;28;20016;-68
2022/08/02 03:59:13;;;;;;;1999.90;999.90;;;;;;;20.09;77.04;95643.16;5069946;28;20392;-68
2022/08/02 04:01:39;;;;;;;1999.90;999.90;;;;;;;19.98;76.87;95621.34;5068868;28;20476;-68
2022/08/02 04:04:05;;;;;;;1999.90;999.90;;;;;;;20.14;76.88;95637.50;5068329;28;20055;-69
2022/08/02 04:06:30;;;;;;;1999.90;999.90;;;;;;;20.09;76.95;95629.66;5070872;28;20288;-67
2022/08/02 04:08:56;;;;;;;1999.90;999.90;;;;;;;19.83;76.93;95574.34;5069174;28;20523;-68
2022/08/02 04:11:30;;;;;;;1999.90;999.90;;;;;;;20.37;77.15;95651.09;5052631;28;20054;-67
2022/08/02 04:13:57;;;;;;;1999.90;999.90;;;;;;;20.25;76.78;95619.59;5068872;28;20087;-68
2022/08/02 04:16:46;;;;;;;1999.90;999.90;;;;;;;20.34;76.92;95630.97;5067769;28;20158;-67
2022/08/02 04:19:20;;;;;;;1999.90;999.90;;;;;;;20.18;76.86;95605.94;5052689;28;20042;-68
2022/08/02 04:21:50;;;;;;;1999.90;999.90;;;;;;;20.54;76.81;95653.41;5059127;28;20147;-67
2022/08/02 04:24:16;;;;;;;1999.90;999.90;;;;;;;20.44;76.63;95638.53;5065613;28;20025;-68
2022/08/02 04:26:44;;;;;;;1999.90;999.90;;;;;;;20.62;76.67;95652.41;5051474;28;20492;-66
2022/08/02 04:29:11;;;;;;;1999.90;999.90;;;;;;;20.64;76.63;95652.06;5069734;28;20029;-66
2022/08/02 04:31:37;;;;;;;1999.90;999.90;;;;;;;20.22;76.57;95601.41;5066135;28;20184;-69
2022/08/02 04:34:03;;;;;;;1999.90;999.90;;;;;;;20.53;76.48;95632.16;5051791;28;20477;-68
2022/08/02 04:36:29;;;;;;;1999.90;999.90;;;;;;;20.40;76.42;95612.56;5051081;28;20043;-68
2022/08/02 04:38:54;;;;;;;1999.90;999.90;;;;;;;20.63;76.20;95651.28;5070001;28;20070;-68
2022/08/02 04:41:20;;;;;;;1999.90;999.90;;;;;;;20.58;76.57;95626.47;5069271;28;20564;-67
2022/08/02 04:43:45;;;;;;;1999.90;999.90;;;;;;;20.28;76.35;95586.47;5069711;28;20107;-66
2022/08/02 04:46:11;;;;;;;1999.90;999.90;;;;;;;20.55;76.04;95627.97;5050367;28;20029;-66
2022/08/02 04:48:36;;;;;;;1999.90;999.90;;;;;;;20.78;76.44;95660.47;5067696;28;20032;-67
2022/08/02 04:51:01;;;;;;;1999.90;999.90;;;;;;;20.49;76.11;95605.06;5069832;28;20435;-66
2022/08/02 04:53:27;;;;;;;1999.90;999.90;;;;;;;20.90;76.09;95664.94;5050104;28;20115;-66
2022/08/02 04:55:52;;;;;;;1999.90;999.90;;;;;;;20.79;75.82;95650.44;5069856;28;20056;-66
2022/08/02 04:58:18;;;;;;;1999.90;999.90;;;;;;;20.94;75.94;95663.88;5050942;28;20481;-67
2022/08/02 05:00:43;;;;;;;1999.90;999.90;;;;;;;20.99;76.02;95660.09;5068395;28;20464;-68
2022/08/02 05:03:09;;;;;;;1999.90;999.90;;;;;;;21.00;75.78;95662.44;5050474;28;20064;-68
2022/08/02 05:05:34;;;;;;;1999.90;999.90;;;;;;;21.05;75.68;95658.66;5050814;28;20028;-69
2022/08/02 05:08:00;;;;;;;1999.90;999.90;;;;;;;21.00;75.67;95653.53;5069761;28;20029;-73
2022/08/02 05:10:25;;;;;;;1999.90;999.90;;;;;;;21.07;75.80;95659.06;5068766;28;20101;-68
2022/08/02 05:12:50;;;;;;;1999.90;999.90;;;;;;;21.10;75.86;95658.38;5049722;28;20025;-68
2022/08/02 05:15:17;;;;;;;1999.90;999.90;;;;;;;21.27;75.84;95671.44;5053218;28;20025;-68
2022/08/02 05:17:43;;;;;;;1999.90;999.90;;;;;;;21.39;75.75;95675.13;5049386;28;20113;-68
2022/08/02 05:20:12;;;;;;;1999.90;999.90;;;;;;;21.51;75.44;95680.38;5034612;28;20115;-70
2022/08/02 05:22:38;;;;;;;1999.90;999.90;;;;;;;21.74;76.12;95677.66;5049109;28;20048;-69
2022/08/02 05:25:03;;;;;;;1999.90;999.90;;;;;;;21.90;75.75;95661.28;5053668;28;20366;-70
2022/08/02 05:27:29;;;;;;;1999.90;999.90;;;;;;;22.05;75.33;95657.63;5068036;28;20027;-68
2022/08/02 05:29:56;;;;;;;1999.90;999.90;;;;;;;22.23;74.85;95655.22;5067802;28;20335;-69
2022/08/02 05:32:21;;;;;;;1999.90;999.90;;;;;;;22.48;74.23;95669.88;5068261;28;20109;-69
2022/08/02 05:34:47;;;;;;;1999.90;999.90;;;;;;;22.63;74.73;95665.44;5059964;28;20108;-68
2022/08/02 05:37:12;;;;;;;1999.90;999.90;;;;;;;22.72;73.33;95657.00;5048915;28;20033;-67
2022/08/02 05:39:37;;;;;;;1999.90;999.90;;;;;;;22.79;73.30;95663.28;5036955;28;20127;-68
2022/08/02 05:42:03;;;;;;;1999.90;999.90;;;;;;;22.79;73.15;95666.00;5068836;28;20025;-67
2022/08/02 05:44:28;;;;;;;1999.90;999.90;;;;;;;22.87;72.92;95679.66;5054335;28;20075;-67
2022/08/02 05:46:53;;;;;;;1999.90;999.90;;;;;;;22.85;71.94;95677.31;5043751;28;20025;-68
2022/08/02 05:49:19;;;;;;;1999.90;999.90;;;;;;;22.56;71.99;95636.28;5055236;28;20495;-68
2022/08/02 05:52:09;;;;;;;1999.90;999.90;;;;;;;22.94;71.86;95696.06;5061753;28;20057;-67
2022/08/02 05:54:43;;;;;;;1999.90;999.90;;;;;;;22.03;68.11;95687.78;5031362;28;20498;-67
2022/08/02 05:57:36;;;;;;;1999.90;999.90;;;;;;;22.12;66.81;95697.63;5048444;28;20028;-68
2022/08/02 06:00:01;;;;;;;1999.90;999.90;;;;;;;21.53;66.26;95699.75;5050650;28;20060;-68
2022/08/02 06:02:39;;;;;;;1999.90;999.90;;;;;;;21.46;66.20;95696.91;5054472;28;20063;-67
2022/08/02 06:05:11;;;;;;;1999.90;999.90;;;;;;;20.27;66.03;95528.19;5048834;28;20068;-70
2022/08/02 06:07:40;;;;;;;1999.90;999.90;;;;;;;21.65;68.56;95628.38;5063594;28;20026;-69
2022/08/02 06:10:08;;;;;;;1999.90;999.90;;;;;;;21.66;69.07;95533.28;5048708;28;20036;-70
2022/08/02 06:12:49;;;;;;;1999.90;999.90;;;;;;;22.43;64.64;95696.53;5048459;28;20373;-69
2022/08/02 06:15:18;;;;;;;1999.90;999.90;;;;;;;22.29;65.30;95691.69;5048863;28;20064;-71
2022/08/02 06:17:44;;;;;;;1999.90;999.90;;;;;;;22.19;66.59;95532.44;5048479;28;20025;-71
2022/08/02 06:20:11;;;;;;;1999.90;999.90;;;;;;;23.58;67.90;95681.19;5030518;28;20108;-70
2022/08/02 06:22:41;;;;;;;1999.90;999.90;;;;;;;23.15;63.77;95704.44;5056785;28;20488;-68
2022/08/02 06:25:07;;;;;;;1999.90;999.90;;;;;;;21.26;63.52;95480.47;5063342;28;20537;-68
2022/08/02 06:27:34;;;;;;;1999.90;999.90;;;;;;;22.23;65.37;95652.50;5048249;28;20055;-68
2022/08/02 06:30:01;;;;;;;1999.90;999.90;;;;;;;22.83;64.21;95664.13;5048941;28;20029;-68
2022/08/02 06:32:26;;;;;;;1999.90;999.90;;;;;;;22.85;63.33;95715.28;5064237;28;20028;-68
2022/08/02 06:34:51;;;;;;;1999.90;999.90;;;;;;;23.44;61.51;95707.44;5031117;28;20025;-67
2022/08/02 06:37:41;;;;;;;1999.90;999.90;;;;;;;24.46;62.69;95701.31;5031343;28;20029;-68
2022/08/02 06:40:17;;;;;;;1999.90;999.90;;;;;;;24.83;56.89;95689.47;5052143;28;20032;-68
2022/08/02 06:43:09;;;;;;;1999.90;999.90;;;;;;;24.21;57.26;95700.34;5052232;28;20469;-68
2022/08/02 06:45:35;;;;;;;1999.90;999.90;;;;;;;24.22;57.36;95691.81;5052269;28;20108;-69
2022/08/02 06:48:00;;;;;;;1999.90;999.90;;;;;;;23.70;57.05;95709.25;5052218;28;20025;-68
2022/08/02 06:50:26;;;;;;;1999.90;999.90;;;;;;;25.34;58.78;95692.00;5034242;28;20025;-69
2022/08/02 06:52:52;;;;;;;1999.90;999.90;;;;;;;24.87;53.97;95701.13;5033510;28;20047;-69
2022/08/02 06:55:17;;;;;;;1999.90;999.90;;;;;;;23.16;55.59;95623.78;5034164;28;20025;-69
2022/08/02 06:57:42;;;;;;;1999.90;999.90;;;;;;;24.70;56.70;95669.19;5051569;28;20021;-68
2022/08/02 07:00:08;;;;;;;1999.90;999.90;;;;;;;24.71;52.88;95632.66;5052176;28;20035;-68
2022/08/02 07:02:38;;;;;;;1999.90;999.90;;;;;;;26.41;49.78;95702.94;5033461;28;20029;-68
2022/08/02 07:05:05;;;;;;;1999.90;999.90;;;;;;;26.34;52.13;95702.94;5066975;28;20025;-69
2022/08/02 07:07:30;;;;;;;1999.90;999.90;;;;;;;26.22;50.56;95705.31;5051605;28;20121;-69
2022/08/02 07:09:56;;;;;;;1999.90;999.90;;;;;;;26.14;50.47;95639.88;5051753;28;20146;-68
2022/08/02 07:12:22;;;;;;;1999.90;999.90;;;;;;;26.43;47.21;95646.06;5051057;28;20500;-69
2022/08/02 07:14:47;;;;;;;1999.90;999.90;;;;;;;24.95;50.34;95680.97;5051615;28;20074;-69
2022/08/02 07:17:12;;;;;;;1999.90;999.90;;;;;;;25.66;50.28;95705.66;5033844;28;20021;-69
2022/08/02 07:19:38;;;;;;;1999.90;999.90;;;;;;;25.89;51.11;95688.94;5033483;28;20068;-68
2022/08/02 07:22:03;;;;;;;1999.90;999.90;;;;;;;24.45;52.37;95707.91;5033130;28;20021;-69
2022/08/02 07:24:29;;;;;;;1999.90;999.90;;;;;;;24.16;54.48;95709.66;5033510;28;20029;-69
2022/08/02 07:26:54;;;;;;;1999.90;999.90;;;;;;;24.36;53.76;95705.53;5033554;28;20029;-68
2022/08/02 07:29:19;;;;;;;1999.90;999.90;;;;;;;24.27;53.27;95585.44;5051181;28;20025;-68
2022/08/02 07:31:45;;;;;;;1999.90;999.90;;;;;;;24.37;52.23;95628.25;5051111;28;20072;-70
2022/08/02 07:34:10;;;;;;;1999.90;999.90;;;;;;;25.07;51.76;95682.56;5051189;28;20114;-69
2022/08/02 07:36:35;;;;;;;1999.90;999.90;;;;;;;22.91;56.18;95667.72;5051338;28;20504;-69
2022/08/02 07:39:01;;;;;;;1999.90;999.90;;;;;;;23.30;56.33;95703.44;5051091;28;20029;-69
2022/08/02 07:41:26;;;;;;;1999.90;999.90;;;;;;;23.71;55.17;95673.59;5032784;28;20024;-69
2022/08/02 07:43:51;;;;;;;1999.90;999.90;;;;;;;24.32;54.54;95688.41;5032543;28;20247;-69
2022/08/02 07:46:17;;;;;;;1999.90;999.90;;;;;;;24.51;53.89;95692.78;5051003;28;20543;-69
2022/08/02 07:48:42;;;;;;;1999.90;999.90;;;;;;;25.01;53.19;95656.88;5032042;28;20048;-69
2022/08/02 07:51:08;;;;;;;1999.90;999.90;;;;;;;25.09;50.43;95628.53;5051003;28;20154;-69
2022/08/02 07:53:33;;;;;;;1999.90;999.90;;;;;;;25.46;51.24;95660.88;5032767;28;20025;-69
2022/08/02 07:56:07;;;;;;;1999.90;999.90;;;;;;;25.59;50.18;95653.09;5033026;28;20029;-70
2022/08/02 07:58:33;;;;;;;1999.90;999.90;;;;;;;25.87;49.91;95655.88;5050777;28;20090;-69
2022/08/02 08:00:58;;;;;;;1999.90;999.90;;;;;;;24.93;49.96;95699.63;5032695;28;20017;-70
2022/08/02 08:03:23;;;;;;;1999.90;999.90;;;;;;;24.65;50.48;95681.22;5050237;28;20047;-69
2022/08/02 08:05:49;;;;;;;1999.90;999.90;;;;;;;24.92;49.66;95648.28;5050310;28;20027;-69
2022/08/02 08:08:14;;;;;;;1999.90;999.90;;;;;;;25.20;49.06;95658.50;5032839;28;20620;-69
2022/08/02 08:10:40;;;;;;;1999.90;999.90;;;;;;;24.53;49.72;95580.94;5050571;28;20059;-70
2022/08/02 08:13:05;;;;;;;1999.90;999.90;;;;;;;25.51;49.19;95649.59;5066277;28;20041;-69
2022/08/02 08:15:31;;;;;;;1999.90;999.90;;;;;;;25.96;48.18;95671.06;5069503;28;20024;-70
2022/08/02 08:17:56;;;;;;;1999.90;999.90;;;;;;;26.41;47.80;95678.41;5052128;28;20086;-70
2022/08/02 08:20:22;;;;;;;1999.90;999.90;;;;;;;26.81;46.77;95683.75;5068046;28;20028;-70
2022/08/02 08:22:47;;;;;;;1999.90;999.90;;;;;;;26.81;46.26;95649.03;5062770;28;20020;-68
2022/08/02 08:25:12;;;;;;;1999.90;999.90;;;;;;;25.97;45.46;95667.16;5070126;28;20104;-70
2022/08/02 08:27:47;;;;;;;1999.90;999.90;;;;;;;26.03;44.45;95674.53;5052248;28;20036;-69
2022/08/02 08:30:12;;;;;;;1999.90;999.90;;;;;;;26.17;45.55;95668.31;5048702;28;20497;-69
2022/08/02 08:32:37;;;;;;;1999.90;999.90;;;;;;;26.21;44.81;95616.47;5068254;28;20056;-66
2022/08/02 08:35:05;;;;;;;1999.90;999.90;;;;;;;26.11;45.50;95680.78;5064874;28;20024;-67
2022/08/02 08:37:38;;;;;;;1999.90;999.90;;;;;;;26.00;45.24;95669.91;5062977;28;20031;-68
2022/08/02 08:40:13;;;;;;;1999.90;999.90;;;;;;;26.73;45.03;95677.56;5037122;28;20024;-67
2022/08/02 08:42:39;;;;;;;1999.90;999.90;;;;;;;26.62;44.67;95674.88;5051692;28;20527;-68
2022/08/02 08:45:05;;;;;;;1999.90;999.90;;;;;;;26.98;44.46;95657.56;5050626;28;20056;-68
2022/08/02 08:47:37;;;;;;;1999.90;999.90;;;;;;;26.23;45.33;95650.38;5032917;28;20039;-72
2022/08/02 08:50:10;;;;;;;1999.90;999.90;;;;;;;27.37;48.46;95674.53;5064891;28;20033;-68
2022/08/02 08:52:46;;;;;;;1999.90;999.90;;;;;;;27.59;48.54;95682.59;5045388;28;20149;-66
2022/08/02 08:55:13;;;;;;;1999.90;999.90;;;;;;;27.16;45.00;95625.50;5069853;28;20492;-65
2022/08/02 08:57:42;;;;;;;1999.90;999.90;;;;;;;27.51;45.92;95668.22;5069205;28;20111;-66
2022/08/02 09:00:11;;;;;;;1999.90;999.90;;;;;;;27.48;44.54;95669.78;5049701;28;20033;-66
2022/08/02 09:02:39;;;;;;;1999.90;999.90;;;;;;;27.65;43.83;95670.06;5049173;28;20071;-66
2022/08/02 09:05:05;;;;;;;1999.90;999.90;;;;;;;26.95;42.64;95547.22;5049494;28;20025;-69
2022/08/02 09:07:31;;;;;;;1999.90;999.90;;;;;;;27.73;42.54;95639.56;5049570;28;20112;-67
2022/08/02 09:09:56;;;;;;;1999.90;999.90;;;;;;;27.96;42.83;95654.63;5032598;28;20175;-66
2022/08/02 09:12:23;;;;;;;1999.90;999.90;;;;;;;27.90;42.56;95626.16;5069203;28;20028;-66
2022/08/02 09:14:49;;;;;;;1999.90;999.90;;;;;;;27.71;42.24;95586.50;5069398;28;20081;-68
2022/08/02 09:17:15;;;;;;;1999.90;999.90;;;;;;;28.19;41.01;95646.56;5069375;28;20350;-66
2022/08/02 09:19:40;;;;;;;1999.90;999.90;;;;;;;27.11;42.45;95617.72;5051292;28;20029;-66
2022/08/02 09:22:09;;;;;;;1999.90;999.90;;;;;;;27.09;44.27;95680.94;5068952;28;20050;-66
2022/08/02 09:24:46;;;;;;;1999.90;999.90;;;;;;;26.51;45.05;95659.69;5069751;28;20025;-69
2022/08/02 09:27:14;;;;;;;1999.90;999.90;;;;;;;26.82;44.99;95682.56;5051544;28;20481;-68
2022/08/02 09:29:40;;;;;;;1999.90;999.90;;;;;;;26.10;45.90;95674.56;5051002;28;20067;-66
2022/08/02 09:32:06;;;;;;;1999.90;999.90;;;;;;;25.52;48.20;95685.78;5069284;28;20040;-67
2022/08/02 09:34:51;;;;;;;1999.90;999.90;;;;;;;26.99;45.53;95681.75;5051187;28;20104;-67
2022/08/02 09:37:22;;;;;;;1999.90;999.90;;;;;;;27.10;44.85;95687.19;5051029;28;20024;-66
2022/08/02 09:39:47;;;;;;;1999.90;999.90;;;;;;;27.11;44.93;95666.88;5069212;28;20029;-67
2022/08/02 09:42:14;;;;;;;1999.90;999.90;;;;;;;26.61;45.45;95662.38;5050851;28;20032;-68
2022/08/02 09:44:39;;;;;;;1999.90;999.90;;;;;;;26.75;45.65;95683.38;5051138;28;20020;-68
2022/08/02 09:47:15;;;;;;;1999.90;999.90;;;;;;;26.08;46.80;95689.75;5051601;28;20032;-68
2022/08/02 09:49:46;;;;;;;1999.90;999.90;;;;;;;25.11;48.66;95646.03;5069019;28;20028;-67
2022/08/02 09:52:11;;;;;;;1999.90;999.90;;;;;;;26.21;46.40;95662.84;5050663;28;20032;-67
2022/08/02 09:54:38;;;;;;;1999.90;999.90;;;;;;;26.21;45.75;95660.91;5068844;28;20667;-67
2022/08/02 09:57:04;;;;;;;1999.90;999.90;;;;;;;27.23;44.08;95682.84;5068839;28;20035;-68
2022/08/02 09:59:30;;;;;;;1999.90;999.90;;;;;;;26.64;44.92;95664.31;5050877;28;20021;-69
2022/08/02 10:01:58;;;;;;;1999.90;999.90;;;;;;;26.57;45.57;95685.41;5051349;28;20024;-67
2022/08/02 10:04:25;;;;;;;1999.90;999.90;;;;;;;27.19;44.24;95671.16;5050873;28;20025;-67
2022/08/02 10:06:52;;;;;;;1999.90;999.90;;;;;;;27.57;42.86;95622.88;5069051;28;20028;-68
2022/08/02 10:09:18;;;;;;;1999.90;999.90;;;;;;;28.30;41.57;95670.31;5068759;28;20028;-67
2022/08/02 10:11:44;;;;;;;1999.90;999.90;;;;;;;27.38;42.81;95661.66;5068870;28;20036;-67
2022/08/02 10:14:10;;;;;;;1999.90;999.90;;;;;;;26.47;44.49;95637.13;5054042;28;20012;-67
2022/08/02 10:16:38;;;;;;;1999.90;999.90;;;;;;;25.79;46.63;95665.19;5054534;28;20077;-69
2022/08/02 10:19:03;;;;;;;1999.90;999.90;;;;;;;25.86;46.42;95678.84;5072485;28;20060;-67
2022/08/02 10:21:47;;;;;;;1999.90;999.90;;;;;;;26.23;45.78;95677.66;5072801;28;20106;-67
2022/08/02 10:24:20;;;;;;;1999.90;999.90;;;;;;;26.14;45.37;95636.38;5037820;28;20028;-67
2022/08/02 10:26:46;;;;;;;1999.90;999.90;;;;;;;26.87;43.80;95671.25;5054342;28;20551;-67
2022/08/02 10:29:16;;;;;;;1999.90;999.90;;;;;;;26.72;44.45;95651.44;5072294;28;20029;-67
2022/08/02 10:31:53;;;;;;;1999.90;999.90;;;;;;;27.28;42.05;95644.19;5072549;28;20388;-67
2022/08/02 10:34:23;;;;;;;1999.90;999.90;;;;;;;27.40;42.35;95676.47;5054191;28;20024;-67
2022/08/02 10:36:50;;;;;;;1999.90;999.90;;;;;;;27.53;42.56;95643.97;5054322;28;20048;-67
2022/08/02 10:39:15;;;;;;;1999.90;999.90;;;;;;;26.57;44.20;95669.81;5066207;28;20054;-68
2022/08/02 10:41:51;;;;;;;1999.90;999.90;;;;;;;26.41;44.06;95670.22;5054203;28;20028;-67
2022/08/02 10:44:27;;;;;;;1999.90;999.90;;;;;;;27.47;42.36;95651.84;5053601;28;20060;-67
2022/08/02 10:47:22;;;;;;;1999.90;999.90;;;;;;;27.64;41.38;95657.56;5053891;28;20028;-68
2022/08/02 10:49:56;;;;;;;1999.90;999.90;;;;;;;28.85;40.57;95658.41;5072019;28;20473;-69
2022/08/02 10:52:30;;;;;;;1999.90;999.90;;;;;;;28.11;39.23;95620.50;5053748;28;20070;-68
2022/08/02 10:55:09;;;;;;;1999.90;999.90;;;;;;;28.81;39.29;95642.00;5071732;28;20024;-68
2022/08/02 10:57:35;;;;;;;1999.90;999.90;;;;;;;28.41;40.80;95654.63;5044107;28;20064;-68
2022/08/02 11:00:11;;;;;;;1999.90;999.90;;;;;;;27.52;41.66;95634.25;5050418;28;20051;-68